KPCMKVDF

Guest
Details From KPCM - Plant City Muni
To KVDF - Vandenberg
Flight Number -
Tags generated
Created
Modified
Stats Distance 10 nm / 18 km
Max Altitude 0 ft / 0 m
Waypoints 2
Social Downloads 1
Likes 0
Share VATSIM

Download

Looking for another format? Having issues loading an existing format? Contact us
Advertisement - Login to hide

Notes

Basic altitude profile: - Ascent Rate: 2500ft/min - Ascent Speed: 250kts - Cruise Altitude: 500000ft - Cruise Speed: 420kts - Descent Rate: 1500ft/min - Descent Speed: 250kts Options: - Use NATs: yes - Use PACOTS: yes - Use low airways: yes - Use high airways: no

Route

KPCM KVDF

ID Type Via Altitude Latitude Longitude Leg Dist Tot Dist Heading (true) Name
O KPCM APT - 0 ft / 0 m 28.00016˚ -82.16331˚ - 0 nm - Plant City Muni
O KVDF APT - 0 ft / 0 m 28.01313˚ -82.34603˚ 9 nm 9 nm 275° / 275° Vandenberg

Altitude Profile

Advertisement - Login to hide

KPCM

Details ICAO KPCM
Name Plant City Muni
Region United States
Timezone America/New_York (UTC-5.0)
Stats Elevation 154 ft / 47 m (AMSL)
Location 28.000156° -82.163311°
Runways 1
Magnetic Variation 5.796° W

METAR

KPCM 171015Z AUTO 06004KT 7SM CLR 13/12 A3023 RMK AO2

Decode

TAF

Not found

Departure Runways

ID Width Length Bearing (true) Bearing (mag) Surface Threshold Offset Overrun Length
10 75 ft / 23 m 3,944 ft / 1,202 m 94.24° 100.04° Asphalt 200 ft / 61 m 0 ft / 0 m
28 75 ft / 23 m 3,944 ft / 1,202 m 274.25° 280.05° Asphalt 0 ft / 0 m 0 ft / 0 m

KVDF

Details ICAO KVDF
Name Vandenberg
Region United States
Timezone America/New_York (UTC-5.0)
Stats Elevation 22 ft / 7 m (AMSL)
Location 28.013126° -82.346029°
Runways 2
Magnetic Variation 5.682° W

METAR

KVDF 171015Z AUTO 00000KT 7SM CLR 11/11 A3022 RMK AO2

Decode

TAF

Not found

Destination Runways

ID Width Length Bearing (true) Bearing (mag) Surface Threshold Offset Overrun Length
05 100 ft / 30 m 5,006 ft / 1,526 m 42.26° 47.94° Asphalt 400 ft / 122 m 0 ft / 0 m
18 75 ft / 23 m 3,271 ft / 997 m 180.19° 185.87° Asphalt 0 ft / 0 m 0 ft / 0 m
23 100 ft / 30 m 5,006 ft / 1,526 m 222.26° 227.94° Asphalt 800 ft / 244 m 0 ft / 0 m
36 75 ft / 23 m 3,271 ft / 997 m 0.19° 5.87° Asphalt 0 ft / 0 m 0 ft / 0 m

Approach Navaids

Runway Type Ident Frequency Range Bearing (true) Bearing (mag) Slope Elevation
23 Localiser IVDF 111.35 MHz 18 nm / 33 km 222.25° 227.93° - 22 ft / 7 m (AMSL)
23 DME IVDF 111.35 MHz 18 nm / 33 km - - - 22 ft / 7 m (AMSL)